createdAt,value
2022-12-27T00:01:29.427Z,1.30
2022-12-27T00:03:55.828Z,1.38
2022-12-27T00:06:23.600Z,0.82
2022-12-27T00:08:50.197Z,0.98
2022-12-27T00:11:17.918Z,2.35
2022-12-27T00:13:44.537Z,1.20
2022-12-27T00:16:13.145Z,1.25
2022-12-27T00:18:39.807Z,1.45
2022-12-27T00:21:06.980Z,1.40
2022-12-27T00:23:34.741Z,0.93
2022-12-27T00:28:55.096Z,1.05
2022-12-27T00:33:48.467Z,1.40
2022-12-27T00:36:17.079Z,1.17
2022-12-27T00:38:43.524Z,1.00
2022-12-27T00:41:10.101Z,1.17
2022-12-27T00:43:36.348Z,1.45
2022-12-27T00:46:02.977Z,1.00
2022-12-27T00:48:29.456Z,1.25
2022-12-27T00:50:59.727Z,1.50
2022-12-27T00:53:26.545Z,0.90
2022-12-27T00:55:52.801Z,1.20
2022-12-27T00:58:19.035Z,1.35
2022-12-27T01:00:45.318Z,1.20
2022-12-27T01:03:11.601Z,1.20
2022-12-27T01:05:38.663Z,1.23
2022-12-27T01:08:05.129Z,1.48
2022-12-27T01:10:31.500Z,1.33
2022-12-27T01:12:57.766Z,1.00
2022-12-27T01:15:24.066Z,1.15
2022-12-27T01:17:50.338Z,0.95
2022-12-27T01:20:16.605Z,1.27
2022-12-27T01:22:42.836Z,1.90
2022-12-27T01:25:09.121Z,1.27
2022-12-27T01:27:35.394Z,2.03
2022-12-27T01:30:02.048Z,1.08
2022-12-27T01:32:28.277Z,1.10
2022-12-27T01:34:54.517Z,1.33
2022-12-27T01:37:20.751Z,1.35
2022-12-27T01:39:47.038Z,1.20
2022-12-27T01:42:35.568Z,1.75
2022-12-27T01:45:02.552Z,1.23
2022-12-27T01:47:42.654Z,1.27
2022-12-27T01:50:21.647Z,1.27
2022-12-27T01:52:51.167Z,1.30
2022-12-27T01:55:20.132Z,1.02
2022-12-27T01:57:47.044Z,2.00
2022-12-27T02:02:40.117Z,1.10
2022-12-27T02:05:06.765Z,1.30
2022-12-27T02:07:44.129Z,1.40
2022-12-27T02:10:10.786Z,1.50
2022-12-27T02:12:37.393Z,1.92
2022-12-27T02:15:04.508Z,1.90
2022-12-27T02:17:32.262Z,1.80
2022-12-27T02:20:03.305Z,1.17
2022-12-27T02:22:57.217Z,1.77
2022-12-27T02:25:41.948Z,2.58
2022-12-27T02:28:27.883Z,2.05
2022-12-27T02:30:59.311Z,1.98
2022-12-27T02:33:28.103Z,2.28
2022-12-27T02:35:57.950Z,2.33
2022-12-27T02:38:30.295Z,2.00
2022-12-27T02:41:16.410Z,1.58
2022-12-27T02:44:01.134Z,1.38
2022-12-27T02:46:47.512Z,1.42
2022-12-27T02:49:45.632Z,1.75
2022-12-27T02:52:55.751Z,1.40
2022-12-27T02:55:31.456Z,1.88
2022-12-27T02:57:57.662Z,1.33
2022-12-27T03:00:43.130Z,1.52
2022-12-27T03:03:28.929Z,2.00
2022-12-27T03:06:29.952Z,1.60
2022-12-27T03:09:01.991Z,1.70
2022-12-27T03:11:50.083Z,1.30
2022-12-27T03:17:06.426Z,1.63
2022-12-27T03:19:52.552Z,1.33
2022-12-27T03:22:39.370Z,1.60
2022-12-27T03:25:24.537Z,2.40
2022-12-27T03:28:11.919Z,1.15
2022-12-27T03:30:57.724Z,1.65
2022-12-27T03:33:25.176Z,1.70
2022-12-27T03:36:27.979Z,2.50
2022-12-27T03:39:05.557Z,1.75
2022-12-27T03:42:03.790Z,1.85
2022-12-27T03:44:30.076Z,1.35
2022-12-27T03:46:58.111Z,1.30
2022-12-27T03:49:30.345Z,1.63
2022-12-27T03:51:56.649Z,1.48
2022-12-27T03:54:26.648Z,1.77
2022-12-27T03:57:01.637Z,1.58
2022-12-27T03:59:28.282Z,1.65
2022-12-27T04:01:54.755Z,1.45
2022-12-27T04:04:21.097Z,1.65
2022-12-27T04:06:47.346Z,1.50
2022-12-27T04:09:32.287Z,1.58
2022-12-27T04:12:17.096Z,1.67
2022-12-27T04:15:01.763Z,2.17
2022-12-27T04:17:46.611Z,2.25
2022-12-27T04:20:31.447Z,1.70
2022-12-27T04:23:16.148Z,2.50
2022-12-27T04:26:01.075Z,2.10
2022-12-27T04:28:45.976Z,1.40
2022-12-27T04:31:30.867Z,1.88
2022-12-27T04:34:15.738Z,1.60
2022-12-27T04:36:42.047Z,1.90
2022-12-27T04:39:08.293Z,1.83
2022-12-27T04:41:53.077Z,1.65
2022-12-27T04:44:37.885Z,1.75
2022-12-27T04:47:22.682Z,2.25
2022-12-27T04:50:07.473Z,2.17
2022-12-27T04:52:52.158Z,1.55
2022-12-27T04:55:25.884Z,2.00
2022-12-27T04:57:52.423Z,1.58
2022-12-27T05:00:38.367Z,1.70
2022-12-27T05:03:09.191Z,1.80
2022-12-27T05:05:36.235Z,2.00
2022-12-27T05:08:21.284Z,1.70
2022-12-27T05:11:06.186Z,2.08
2022-12-27T05:13:51.101Z,1.83
2022-12-27T05:16:17.396Z,1.50
2022-12-27T05:18:43.729Z,1.70
2022-12-27T05:21:10.017Z,2.25
2022-12-27T05:23:58.835Z,1.55
2022-12-27T05:26:29.011Z,1.90
2022-12-27T05:28:56.325Z,2.22
2022-12-27T05:31:23.960Z,1.70
2022-12-27T05:33:50.759Z,2.10
2022-12-27T05:36:17.318Z,2.70
2022-12-27T05:38:43.622Z,2.10
2022-12-27T05:41:10.036Z,3.25
2022-12-27T05:43:36.374Z,2.90
2022-12-27T05:46:07.137Z,1.88
2022-12-27T05:48:33.427Z,1.80
2022-12-27T05:51:04.161Z,2.25
2022-12-27T05:53:30.438Z,2.83
2022-12-27T05:55:57.673Z,3.63
2022-12-27T05:58:24.111Z,7.28
2022-12-27T06:00:50.362Z,7.93
2022-12-27T06:03:16.670Z,16.77
2022-12-27T06:05:42.973Z,2.47
2022-12-27T06:08:09.549Z,2.22
2022-12-27T06:10:35.933Z,1.90
2022-12-27T06:13:02.732Z,2.65
2022-12-27T06:15:29.441Z,1.77
2022-12-27T06:17:55.735Z,2.42
2022-12-27T06:20:21.991Z,2.20
2022-12-27T06:22:48.303Z,2.25
2022-12-27T06:25:14.661Z,2.05
2022-12-27T06:27:41.591Z,2.25
2022-12-27T06:32:34.561Z,6.53
2022-12-27T06:35:00.775Z,10.75
2022-12-27T06:37:27.002Z,5.18
2022-12-27T06:39:53.269Z,5.47
2022-12-27T06:42:19.495Z,4.18
2022-12-27T06:44:45.753Z,3.10
2022-12-27T06:47:12.002Z,2.90
2022-12-27T06:49:39.031Z,2.95
2022-12-27T06:52:05.329Z,3.42
2022-12-27T06:54:31.752Z,2.92
2022-12-27T06:56:58.688Z,2.63
2022-12-27T07:01:51.304Z,3.20
2022-12-27T07:04:17.702Z,3.58
2022-12-27T07:06:43.967Z,3.78
2022-12-27T07:09:10.219Z,3.05
2022-12-27T07:11:36.654Z,2.72
2022-12-27T07:14:03.105Z,4.13
2022-12-27T07:16:29.950Z,3.17
2022-12-27T07:21:23.470Z,2.97
2022-12-27T07:23:50.089Z,3.42
2022-12-27T07:26:20.364Z,2.95
2022-12-27T07:28:46.617Z,3.70
2022-12-27T07:31:15.245Z,4.30
2022-12-27T07:33:42.130Z,3.25
2022-12-27T07:38:34.652Z,7.07
2022-12-27T07:41:01.546Z,5.63
2022-12-27T07:45:54.058Z,4.50
2022-12-27T07:48:20.296Z,3.45
2022-12-27T07:50:53.449Z,3.85
2022-12-27T07:53:19.679Z,3.67
2022-12-27T07:55:47.046Z,3.55
2022-12-27T07:58:13.376Z,2.67
2022-12-27T08:00:39.609Z,2.13
2022-12-27T08:03:05.958Z,2.35
2022-12-27T08:05:32.254Z,2.80
2022-12-27T08:08:01.596Z,2.72
2022-12-27T08:10:28.336Z,2.85
2022-12-27T08:12:54.605Z,2.75
2022-12-27T08:15:21.243Z,3.10
2022-12-27T08:17:47.465Z,3.58
2022-12-27T08:20:14.494Z,3.40
2022-12-27T08:22:40.752Z,2.72
2022-12-27T08:25:07.535Z,2.83
2022-12-27T08:27:33.928Z,3.33
2022-12-27T08:30:00.176Z,3.10
2022-12-27T08:32:26.493Z,4.80
2022-12-27T08:34:53.210Z,6.55
2022-12-27T08:37:19.425Z,5.63
2022-12-27T08:39:45.702Z,6.88
2022-12-27T08:42:12.846Z,6.15
2022-12-27T08:44:39.232Z,4.38
2022-12-27T08:47:05.722Z,4.20
2022-12-27T08:49:31.937Z,3.78
2022-12-27T08:51:58.212Z,3.83
2022-12-27T08:54:24.673Z,4.10
2022-12-27T08:56:50.892Z,4.93
2022-12-27T08:59:17.119Z,4.55
2022-12-27T09:01:43.438Z,5.55
2022-12-27T09:04:09.784Z,6.15
2022-12-27T09:06:35.987Z,5.68
2022-12-27T09:09:02.209Z,3.92
2022-12-27T09:11:30.013Z,3.22
2022-12-27T09:13:58.486Z,2.72
2022-12-27T09:16:27.380Z,3.67
2022-12-27T09:18:54.307Z,3.80
2022-12-27T09:23:47.152Z,4.65
2022-12-27T09:26:17.692Z,3.60
2022-12-27T09:28:44.471Z,3.90
2022-12-27T09:31:11.951Z,4.18
2022-12-27T09:33:38.379Z,4.95
2022-12-27T09:36:06.299Z,4.18
2022-12-27T09:38:32.765Z,4.07
2022-12-27T09:41:00.723Z,5.75
2022-12-27T09:43:40.582Z,5.18
2022-12-27T09:46:13.030Z,3.28
2022-12-27T09:48:39.930Z,3.08
2022-12-27T09:53:35.763Z,2.63
2022-12-27T09:56:02.048Z,3.10
2022-12-27T09:58:42.748Z,3.45
2022-12-27T10:01:17.279Z,2.42
2022-12-27T10:03:43.579Z,2.88
2022-12-27T10:06:28.521Z,2.28
2022-12-27T10:09:00.289Z,3.00
2022-12-27T10:11:36.179Z,3.10
2022-12-27T10:14:09.196Z,2.80
2022-12-27T10:16:55.719Z,2.50
2022-12-27T10:19:29.403Z,2.95
2022-12-27T10:22:05.523Z,1.80
2022-12-27T10:24:56.457Z,2.58
2022-12-27T10:27:24.455Z,2.70
2022-12-27T10:29:54.529Z,2.58
2022-12-27T10:32:20.793Z,2.20
2022-12-27T10:34:49.815Z,3.47
2022-12-27T10:37:16.347Z,2.38
2022-12-27T10:39:43.105Z,2.40
2022-12-27T10:42:22.508Z,1.92
2022-12-27T10:44:48.714Z,2.50
2022-12-27T10:47:16.235Z,2.95
2022-12-27T10:49:44.292Z,2.83
2022-12-27T10:52:15.635Z,2.40
2022-12-27T10:54:57.258Z,2.63
2022-12-27T10:57:26.239Z,2.55
2022-12-27T11:00:09.015Z,2.20
2022-12-27T11:02:37.089Z,1.92
2022-12-27T11:05:03.518Z,2.25
2022-12-27T11:07:34.240Z,2.17
2022-12-27T11:10:26.755Z,2.00
2022-12-27T11:13:03.480Z,2.00
2022-12-27T11:15:31.132Z,2.33
2022-12-27T11:17:58.525Z,2.28
2022-12-27T11:20:27.546Z,3.20
2022-12-27T11:22:55.671Z,2.05
2022-12-27T11:25:22.212Z,2.60
2022-12-27T11:27:53.720Z,2.03
2022-12-27T11:30:24.680Z,2.10
2022-12-27T11:32:51.443Z,2.47
2022-12-27T11:35:19.304Z,2.05
2022-12-27T11:37:46.040Z,2.10
2022-12-27T11:40:21.453Z,2.25
2022-12-27T11:42:51.161Z,2.30
2022-12-27T11:45:17.352Z,2.42
2022-12-27T11:48:03.871Z,2.58
2022-12-27T11:50:40.745Z,1.95
2022-12-27T11:53:25.838Z,2.45
2022-12-27T11:55:55.148Z,2.22
2022-12-27T11:58:36.994Z,1.75
2022-12-27T12:01:21.832Z,2.60
2022-12-27T12:04:06.714Z,2.33
2022-12-27T12:06:51.873Z,2.30
2022-12-27T12:09:21.106Z,2.35
2022-12-27T12:12:07.064Z,2.85
2022-12-27T12:14:43.073Z,3.28
2022-12-27T12:17:19.071Z,2.30
2022-12-27T12:20:11.597Z,2.00
2022-12-27T12:22:56.397Z,2.40
2022-12-27T12:25:22.606Z,2.67
2022-12-27T12:28:29.976Z,2.47
2022-12-27T12:31:02.741Z,2.35
2022-12-27T12:33:31.975Z,2.55
2022-12-27T12:36:16.540Z,2.15
2022-12-27T12:38:49.618Z,2.50
2022-12-27T12:41:45.379Z,2.17
2022-12-27T12:44:11.608Z,2.25
2022-12-27T12:46:37.794Z,2.47
2022-12-27T12:49:15.946Z,6.18
2022-12-27T12:52:02.707Z,4.03
2022-12-27T12:54:52.020Z,11.38
2022-12-27T12:57:25.043Z,7.13
2022-12-27T12:59:54.230Z,5.82
2022-12-27T13:02:39.138Z,2.78
2022-12-27T13:05:05.629Z,3.30
2022-12-27T13:07:39.526Z,2.70
2022-12-27T13:10:32.770Z,2.30
2022-12-27T13:13:05.257Z,3.42
2022-12-27T13:15:35.919Z,2.67
2022-12-27T13:18:07.193Z,2.83
2022-12-27T13:20:51.955Z,2.63
2022-12-27T13:23:18.188Z,2.30
2022-12-27T13:25:51.313Z,2.83
2022-12-27T13:28:36.373Z,2.50
2022-12-27T13:31:02.590Z,3.15
2022-12-27T13:33:47.855Z,4.35
2022-12-27T13:36:26.298Z,2.95
2022-12-27T13:38:55.502Z,3.30
2022-12-27T13:41:30.749Z,3.60
2022-12-27T13:44:03.238Z,3.05
2022-12-27T13:46:42.900Z,2.88
2022-12-27T13:49:28.277Z,2.15
2022-12-27T13:51:58.510Z,2.58
2022-12-27T13:54:24.718Z,2.90
2022-12-27T13:57:26.559Z,3.40
2022-12-27T14:00:11.674Z,3.20
2022-12-27T14:02:38.101Z,2.65
2022-12-27T14:05:30.707Z,2.67
2022-12-27T14:08:02.761Z,3.20
2022-12-27T14:10:36.357Z,2.67
2022-12-27T14:13:09.187Z,2.97
2022-12-27T14:15:38.502Z,3.17
2022-12-27T14:18:29.902Z,2.83
2022-12-27T14:21:11.664Z,9.95
2022-12-27T14:23:56.226Z,6.45
2022-12-27T14:26:41.113Z,9.13
2022-12-27T14:29:07.291Z,5.68
2022-12-27T14:31:33.522Z,5.05
2022-12-27T14:34:19.345Z,3.90
2022-12-27T14:36:51.710Z,4.40
2022-12-27T14:39:33.265Z,3.67
2022-12-27T14:42:10.765Z,3.78
2022-12-27T14:47:12.405Z,3.95
2022-12-27T14:49:57.537Z,4.28
2022-12-27T14:52:42.483Z,4.00
2022-12-27T14:55:27.480Z,6.30
2022-12-27T14:58:08.957Z,5.07
2022-12-27T15:00:54.085Z,6.43
2022-12-27T15:03:43.588Z,6.10
2022-12-27T15:06:28.301Z,11.20
2022-12-27T15:09:07.213Z,7.03
2022-12-27T15:11:43.643Z,3.60
2022-12-27T15:14:19.666Z,3.47
2022-12-27T15:17:04.438Z,3.97
2022-12-27T15:19:39.596Z,3.22
2022-12-27T15:22:24.204Z,3.30
2022-12-27T15:25:06.428Z,2.88
2022-12-27T15:27:53.869Z,4.00
2022-12-27T15:30:25.230Z,3.28
2022-12-27T15:32:53.362Z,3.75
2022-12-27T15:35:34.158Z,3.70
2022-12-27T15:38:10.514Z,4.00
2022-12-27T15:40:49.487Z,5.60
2022-12-27T15:43:24.095Z,6.03
2022-12-27T15:46:13.580Z,4.95
2022-12-27T15:48:51.570Z,5.82
2022-12-27T15:51:28.373Z,7.47
2022-12-27T15:53:57.414Z,7.65
2022-12-27T15:56:29.676Z,6.80
2022-12-27T15:59:14.705Z,5.93
2022-12-27T16:01:41.055Z,7.55
2022-12-27T16:04:26.068Z,7.03
2022-12-27T16:06:52.457Z,5.32
2022-12-27T16:09:37.016Z,5.28
2022-12-27T16:12:09.590Z,4.95
2022-12-27T16:14:39.745Z,4.43
2022-12-27T16:17:24.458Z,3.72
2022-12-27T16:19:55.276Z,5.43
2022-12-27T16:22:24.160Z,6.53
2022-12-27T16:24:50.699Z,6.15
2022-12-27T16:27:31.700Z,6.20
2022-12-27T16:29:58.477Z,5.68
2022-12-27T16:34:54.188Z,7.45
2022-12-27T16:37:26.239Z,9.52
2022-12-27T16:39:58.696Z,6.28
2022-12-27T16:42:33.755Z,8.25
2022-12-27T16:45:02.925Z,8.73
2022-12-27T16:47:58.820Z,11.73
2022-12-27T16:50:40.505Z,10.88
2022-12-27T16:53:07.290Z,15.93
2022-12-27T16:55:40.627Z,19.40
2022-12-27T16:58:36.091Z,34.33
2022-12-27T17:01:04.057Z,24.65
2022-12-27T17:03:36.249Z,25.63
2022-12-27T17:06:32.067Z,25.55
2022-12-27T17:09:08.838Z,36.03
2022-12-27T17:11:59.764Z,29.60
2022-12-27T17:14:27.972Z,12.82
2022-12-27T17:16:59.079Z,7.10
2022-12-27T17:19:28.037Z,6.05
2022-12-27T17:22:00.287Z,6.00
2022-12-27T17:24:26.575Z,5.55
2022-12-27T17:27:02.121Z,5.50
2022-12-27T17:29:47.249Z,4.40
2022-12-27T17:32:31.772Z,6.70
2022-12-27T17:34:58.024Z,6.05
2022-12-27T17:37:24.241Z,4.35
2022-12-27T17:39:57.063Z,6.10
2022-12-27T17:42:50.229Z,6.15
2022-12-27T17:45:33.737Z,12.43
2022-12-27T17:48:08.391Z,16.65
2022-12-27T17:50:35.121Z,11.38
2022-12-27T17:53:22.060Z,14.13
2022-12-27T17:56:29.906Z,12.60
2022-12-27T17:59:01.401Z,12.07
2022-12-27T18:01:28.868Z,9.30
2022-12-27T18:03:55.278Z,10.57
2022-12-27T18:06:21.589Z,8.55
2022-12-27T18:08:49.179Z,8.00
2022-12-27T18:11:15.741Z,7.68
2022-12-27T18:13:47.684Z,7.00
2022-12-27T18:16:19.302Z,7.88
2022-12-27T18:18:47.241Z,7.20
2022-12-27T18:21:20.720Z,6.20
2022-12-27T18:23:49.018Z,6.85
2022-12-27T18:26:15.623Z,7.47
2022-12-27T18:28:42.476Z,8.55
2022-12-27T18:33:34.895Z,10.55
2022-12-27T18:36:03.056Z,9.23
2022-12-27T18:38:38.446Z,6.82
2022-12-27T18:41:06.681Z,5.50
2022-12-27T18:43:33.556Z,4.80
2022-12-27T18:48:29.101Z,3.90
2022-12-27T18:50:58.174Z,4.95
2022-12-27T18:53:24.471Z,4.55
2022-12-27T18:56:00.871Z,6.13
2022-12-27T18:58:27.344Z,4.97
2022-12-27T19:00:53.607Z,6.10
2022-12-27T19:03:20.536Z,7.60
2022-12-27T19:08:19.992Z,18.08
2022-12-27T19:10:47.729Z,17.13
2022-12-27T19:13:37.215Z,12.70
2022-12-27T19:16:03.597Z,11.50
2022-12-27T19:18:38.973Z,12.75
2022-12-27T19:21:06.011Z,12.48
2022-12-27T19:23:34.324Z,10.95
2022-12-27T19:26:04.458Z,11.40
2022-12-27T19:28:31.082Z,11.75
2022-12-27T19:31:05.365Z,12.02
2022-12-27T19:33:34.079Z,12.48
2022-12-27T19:36:01.822Z,11.98
2022-12-27T19:38:28.750Z,11.43
2022-12-27T19:41:02.804Z,10.30
2022-12-27T19:43:39.955Z,10.43
2022-12-27T19:46:06.515Z,9.97
2022-12-27T19:48:32.749Z,10.38
2022-12-27T19:50:59.261Z,8.50
2022-12-27T19:53:31.174Z,6.32
2022-12-27T19:55:58.263Z,10.20
2022-12-27T19:58:26.042Z,9.95
2022-12-27T20:00:52.570Z,10.10
2022-12-27T20:03:19.304Z,12.88
2022-12-27T20:06:14.688Z,13.45
2022-12-27T20:08:43.566Z,11.80
2022-12-27T20:13:35.967Z,11.77
2022-12-27T20:16:02.525Z,11.52
2022-12-27T20:18:28.776Z,11.55
2022-12-27T20:20:55.055Z,11.40
2022-12-27T20:23:21.455Z,10.68
2022-12-27T20:25:48.725Z,10.75
2022-12-27T20:28:15.766Z,10.70
2022-12-27T20:30:42.508Z,9.88
2022-12-27T20:33:09.114Z,10.32
2022-12-27T20:35:35.684Z,11.30
2022-12-27T20:38:02.502Z,9.50
2022-12-27T20:42:55.158Z,8.52
2022-12-27T20:45:21.524Z,9.10
2022-12-27T20:47:47.784Z,10.75
2022-12-27T20:50:14.000Z,11.73
2022-12-27T20:52:40.273Z,14.50
2022-12-27T20:55:07.147Z,11.90
2022-12-27T20:59:59.572Z,12.40
2022-12-27T21:02:26.031Z,13.00
2022-12-27T21:04:52.378Z,13.60
2022-12-27T21:07:18.617Z,15.98
2022-12-27T21:09:44.858Z,20.98
2022-12-27T21:12:11.112Z,17.23
2022-12-27T21:14:38.576Z,16.38
2022-12-27T21:17:05.185Z,20.98
2022-12-27T21:19:31.549Z,18.42
2022-12-27T21:21:57.933Z,13.40
2022-12-27T21:24:24.177Z,11.57
2022-12-27T21:26:54.701Z,11.43
2022-12-27T21:29:22.729Z,12.10
2022-12-27T21:31:48.939Z,12.43
2022-12-27T21:34:16.238Z,12.55
2022-12-27T21:36:42.460Z,20.80
2022-12-27T21:39:08.790Z,31.08
2022-12-27T21:41:36.472Z,28.63
2022-12-27T21:44:03.133Z,29.15
2022-12-27T21:46:33.811Z,32.05
2022-12-27T21:49:01.497Z,12.48
2022-12-27T21:51:28.470Z,13.10
2022-12-27T21:53:54.993Z,11.38
2022-12-27T21:56:21.606Z,12.18
2022-12-27T21:58:47.993Z,11.50
2022-12-27T22:01:15.750Z,11.23
2022-12-27T22:03:43.597Z,12.60
2022-12-27T22:06:11.421Z,12.52
2022-12-27T22:08:37.866Z,13.02
2022-12-27T22:11:04.068Z,13.38
2022-12-27T22:13:30.379Z,13.57
2022-12-27T22:15:57.505Z,12.38
2022-12-27T22:18:24.003Z,11.75
2022-12-27T22:20:50.580Z,10.90
2022-12-27T22:23:17.216Z,11.00
2022-12-27T22:25:44.143Z,11.35
2022-12-27T22:30:40.602Z,11.05
2022-12-27T22:33:07.359Z,11.93
2022-12-27T22:35:33.867Z,11.90
2022-12-27T22:38:00.092Z,10.85
2022-12-27T22:40:36.697Z,12.90
2022-12-27T22:43:12.321Z,12.82
2022-12-27T22:45:40.433Z,14.57
2022-12-27T22:48:07.189Z,15.18
2022-12-27T22:50:33.409Z,15.45
2022-12-27T22:52:59.642Z,15.27
2022-12-27T22:55:25.907Z,15.93
2022-12-27T22:57:52.163Z,18.35
2022-12-27T23:00:20.468Z,15.32
2022-12-27T23:02:47.180Z,14.60
2022-12-27T23:05:13.935Z,14.82
2022-12-27T23:08:05.295Z,16.13
2022-12-27T23:10:26.605Z,13.63
2022-12-27T23:12:52.827Z,14.30
2022-12-27T23:15:19.071Z,13.20
2022-12-27T23:17:45.368Z,14.00
2022-12-27T23:20:11.867Z,13.18
2022-12-27T23:22:38.104Z,12.88
2022-12-27T23:25:04.519Z,13.35
2022-12-27T23:27:30.766Z,13.75
2022-12-27T23:29:56.992Z,13.25
2022-12-27T23:32:23.217Z,13.40
2022-12-27T23:34:52.429Z,13.98
2022-12-27T23:37:18.676Z,12.98
2022-12-27T23:39:44.876Z,13.32
2022-12-27T23:42:11.115Z,13.48
2022-12-27T23:44:37.359Z,13.43
2022-12-27T23:47:04.233Z,12.85
2022-12-27T23:49:30.837Z,13.43
2022-12-27T23:51:57.098Z,14.30
2022-12-27T23:54:23.362Z,13.10
2022-12-27T23:56:49.563Z,13.73
2022-12-27T23:59:16.728Z,12.90
